createdAt,value
2018-11-04T00:00:45.739Z,15.67
2018-11-04T00:03:16.266Z,15.38
2018-11-04T00:05:46.259Z,14.43
2018-11-04T00:08:16.097Z,13.73
2018-11-04T00:10:45.699Z,16.52
2018-11-04T00:13:15.552Z,15.53
2018-11-04T00:15:45.290Z,13.48
2018-11-04T00:18:15.114Z,13.30
2018-11-04T00:20:45.244Z,14.50
2018-11-04T00:23:15.030Z,14.30
2018-11-04T00:25:44.689Z,13.38
2018-11-04T00:28:14.391Z,12.95
2018-11-04T00:30:44.329Z,15.57
2018-11-04T00:33:14.001Z,15.00
2018-11-04T00:35:43.656Z,13.47
2018-11-04T00:38:14.068Z,15.07
2018-11-04T00:40:43.579Z,15.10
2018-11-04T00:43:13.666Z,13.88
2018-11-04T00:45:43.556Z,14.23
2018-11-04T00:48:13.208Z,13.60
2018-11-04T00:50:43.514Z,14.60
2018-11-04T00:53:13.110Z,15.13
2018-11-04T00:55:52.824Z,13.93
2018-11-04T00:58:23.913Z,15.05
2018-11-04T01:00:54.054Z,13.68
2018-11-04T01:03:23.863Z,14.13
2018-11-04T01:05:53.419Z,14.50
2018-11-04T01:08:23.151Z,15.30
2018-11-04T01:10:52.965Z,13.40
2018-11-04T01:13:22.574Z,13.43
2018-11-04T01:15:52.299Z,14.70
2018-11-04T01:18:21.855Z,13.10
2018-11-04T01:20:51.629Z,13.37
2018-11-04T01:23:21.193Z,15.17
2018-11-04T01:25:51.043Z,14.33
2018-11-04T01:28:20.734Z,14.17
2018-11-04T01:30:50.609Z,14.90
2018-11-04T01:33:20.348Z,13.23
2018-11-04T01:35:50.066Z,13.40
2018-11-04T01:38:19.823Z,14.25
2018-11-04T01:40:49.493Z,12.45
2018-11-04T01:43:19.184Z,12.65
2018-11-04T01:45:48.882Z,13.28
2018-11-04T01:48:18.608Z,13.07
2018-11-04T01:50:48.578Z,13.68
2018-11-04T01:53:18.286Z,12.50
2018-11-04T01:55:48.056Z,11.93
2018-11-04T01:58:17.801Z,12.07
2018-11-04T02:00:47.530Z,13.27
2018-11-04T02:03:17.073Z,13.20
2018-11-04T02:05:47.590Z,14.00
2018-11-04T02:08:18.574Z,14.13
2018-11-04T02:10:48.366Z,11.50
2018-11-04T02:13:17.995Z,13.07
2018-11-04T02:15:47.764Z,14.00
2018-11-04T02:18:17.390Z,13.53
2018-11-04T02:20:47.070Z,13.97
2018-11-04T02:23:16.848Z,13.55
2018-11-04T02:25:46.505Z,14.25
2018-11-04T02:28:16.174Z,13.13
2018-11-04T02:30:45.938Z,13.85
2018-11-04T02:33:15.619Z,13.90
2018-11-04T02:35:45.363Z,13.20
2018-11-04T02:38:14.956Z,14.73
2018-11-04T02:40:44.664Z,14.17
2018-11-04T02:43:14.304Z,12.10
2018-11-04T02:45:43.907Z,13.80
2018-11-04T02:48:13.605Z,14.77
2018-11-04T02:50:43.396Z,13.62
2018-11-04T02:53:13.054Z,14.63
2018-11-04T02:55:42.700Z,13.33
2018-11-04T02:58:12.480Z,14.27
2018-11-04T03:00:43.264Z,14.00
2018-11-04T03:03:12.886Z,13.40
2018-11-04T03:05:42.518Z,12.10
2018-11-04T03:08:12.071Z,12.07
2018-11-04T03:10:41.725Z,13.23
2018-11-04T03:13:11.400Z,13.43
2018-11-04T03:15:41.008Z,13.67
2018-11-04T03:18:10.618Z,12.70
2018-11-04T03:20:40.148Z,13.25
2018-11-04T03:23:10.052Z,13.93
2018-11-04T03:25:39.980Z,13.48
2018-11-04T03:28:10.596Z,12.23
2018-11-04T03:30:40.417Z,13.07
2018-11-04T03:33:10.469Z,24.07
2018-11-04T03:35:40.012Z,64.15
2018-11-04T03:38:09.729Z,25.60
2018-11-04T03:40:39.485Z,15.30
2018-11-04T03:43:09.371Z,13.85
2018-11-04T03:45:39.051Z,12.80
2018-11-04T03:48:08.720Z,15.50
2018-11-04T03:50:38.918Z,14.25
2018-11-04T03:53:08.886Z,14.33
2018-11-04T03:55:38.807Z,15.10
2018-11-04T03:58:08.466Z,14.23
2018-11-04T04:00:38.042Z,14.93
2018-11-04T04:03:07.694Z,12.63
2018-11-04T04:05:37.260Z,13.83
2018-11-04T04:08:07.031Z,14.07
2018-11-04T04:10:36.711Z,15.57
2018-11-04T04:13:06.596Z,15.30
2018-11-04T04:15:36.338Z,14.80
2018-11-04T04:18:06.241Z,14.17
2018-11-04T04:20:36.115Z,14.83
2018-11-04T04:23:06.010Z,14.33
2018-11-04T04:25:35.622Z,14.10
2018-11-04T04:28:05.326Z,13.18
2018-11-04T04:30:34.879Z,14.17
2018-11-04T04:33:04.673Z,14.10
2018-11-04T04:35:34.230Z,13.83
2018-11-04T04:38:03.827Z,12.67
2018-11-04T04:40:33.616Z,13.78
2018-11-04T04:43:03.480Z,12.67
2018-11-04T04:45:33.136Z,12.23
2018-11-04T04:48:02.874Z,12.77
2018-11-04T04:50:32.803Z,14.40
2018-11-04T04:53:02.590Z,13.63
2018-11-04T04:55:32.244Z,13.67
2018-11-04T04:58:01.883Z,14.13
2018-11-04T05:00:31.535Z,14.40
2018-11-04T05:03:01.251Z,13.63
2018-11-04T05:05:30.987Z,13.35
2018-11-04T05:08:00.615Z,13.87
2018-11-04T05:10:30.131Z,12.25
2018-11-04T05:12:59.756Z,14.37
2018-11-04T05:15:29.434Z,13.35
2018-11-04T05:17:59.169Z,12.73
2018-11-04T05:20:28.838Z,13.80
2018-11-04T05:22:58.428Z,12.47
2018-11-04T05:25:27.974Z,13.33
2018-11-04T05:27:57.550Z,12.97
2018-11-04T05:30:27.343Z,13.63
2018-11-04T05:32:58.070Z,14.30
2018-11-04T05:35:27.735Z,12.93
2018-11-04T05:37:57.375Z,14.57
2018-11-04T05:40:27.301Z,13.33
2018-11-04T05:42:56.934Z,13.60
2018-11-04T05:45:26.624Z,12.40
2018-11-04T05:47:56.211Z,14.20
2018-11-04T05:50:25.926Z,12.57
2018-11-04T05:52:55.494Z,13.13
2018-11-04T05:55:25.180Z,14.20
2018-11-04T05:57:54.963Z,13.43
2018-11-04T06:00:24.550Z,13.17
2018-11-04T06:02:54.394Z,13.05
2018-11-04T06:05:24.097Z,14.60
2018-11-04T06:07:53.761Z,13.23
2018-11-04T06:10:23.410Z,13.00
2018-11-04T06:12:53.086Z,14.53
2018-11-04T06:15:22.851Z,13.50
2018-11-04T06:17:52.605Z,13.83
2018-11-04T06:20:22.149Z,13.62
2018-11-04T06:27:48.890Z,14.33
2018-11-04T06:30:18.539Z,13.05
2018-11-04T06:32:48.289Z,12.97
2018-11-04T06:35:17.962Z,15.03
2018-11-04T06:37:54.146Z,14.37
2018-11-04T06:40:23.766Z,14.03
2018-11-04T06:42:53.559Z,19.50
2018-11-04T06:45:23.259Z,53.70
2018-11-04T06:47:53.004Z,24.70
2018-11-04T06:50:22.675Z,15.30
2018-11-04T06:52:52.392Z,14.30
2018-11-04T06:55:22.270Z,13.13
2018-11-04T06:57:52.132Z,12.83
2018-11-04T07:00:21.917Z,13.95
2018-11-04T07:02:51.612Z,13.87
2018-11-04T07:05:21.469Z,13.17
2018-11-04T07:07:51.090Z,13.50
2018-11-04T07:10:20.850Z,14.23
2018-11-04T07:12:51.110Z,13.72
2018-11-04T07:15:20.778Z,14.20
2018-11-04T07:17:50.615Z,13.57
2018-11-04T07:20:20.266Z,13.40
2018-11-04T07:22:49.933Z,14.50
2018-11-04T07:25:19.802Z,15.00
2018-11-04T07:27:49.615Z,14.63
2018-11-04T07:30:19.270Z,13.67
2018-11-04T07:32:48.917Z,14.25
2018-11-04T07:35:18.767Z,14.23
2018-11-04T07:37:48.521Z,15.28
2018-11-04T07:40:18.288Z,14.83
2018-11-04T07:42:47.899Z,15.00
2018-11-04T07:45:17.650Z,17.23
2018-11-04T07:47:47.357Z,17.60
2018-11-04T07:50:16.998Z,16.20
2018-11-04T07:52:46.709Z,15.30
2018-11-04T07:55:16.452Z,16.07
2018-11-04T07:57:46.105Z,15.13
2018-11-04T08:00:16.737Z,15.23
2018-11-04T08:02:46.505Z,15.27
2018-11-04T08:05:16.372Z,14.53
2018-11-04T08:07:45.993Z,15.70
2018-11-04T08:10:15.838Z,14.07
2018-11-04T08:12:45.576Z,15.53
2018-11-04T08:15:15.202Z,15.10
2018-11-04T08:17:44.757Z,15.83
2018-11-04T08:20:14.480Z,15.23
2018-11-04T08:22:44.277Z,15.77
2018-11-04T08:25:14.032Z,15.77
2018-11-04T08:27:43.702Z,15.93
2018-11-04T08:30:13.405Z,16.13
2018-11-04T08:32:43.090Z,15.85
2018-11-04T08:35:12.855Z,15.60
2018-11-04T08:37:42.767Z,15.97
2018-11-04T08:40:12.655Z,17.23
2018-11-04T08:42:42.608Z,18.00
2018-11-04T08:45:12.536Z,17.53
2018-11-04T08:47:42.472Z,15.63
2018-11-04T08:50:12.387Z,15.80
2018-11-04T08:52:43.133Z,17.37
2018-11-04T08:55:13.042Z,18.70
2018-11-04T08:57:42.831Z,18.03
2018-11-04T09:00:15.358Z,17.73
2018-11-04T09:02:45.730Z,19.00
2018-11-04T09:05:15.463Z,20.50
2018-11-04T09:07:45.478Z,19.33
2018-11-04T09:10:16.401Z,17.87
2018-11-04T09:12:46.695Z,18.83
2018-11-04T09:15:16.606Z,19.23
2018-11-04T09:17:46.637Z,17.93
2018-11-04T09:20:17.401Z,19.10
2018-11-04T09:22:47.116Z,18.47
2018-11-04T09:25:17.117Z,19.43
2018-11-04T09:27:47.322Z,19.85
2018-11-04T09:30:17.667Z,19.10
2018-11-04T09:32:47.591Z,19.57
2018-11-04T09:35:17.392Z,20.83
2018-11-04T09:37:47.161Z,21.07
2018-11-04T09:40:17.084Z,21.43
2018-11-04T09:42:46.757Z,20.23
2018-11-04T09:45:17.068Z,23.50
2018-11-04T09:47:47.107Z,22.23
2018-11-04T09:50:16.925Z,25.10
2018-11-04T09:52:46.836Z,22.20
2018-11-04T09:55:16.607Z,24.93
2018-11-04T09:57:46.516Z,24.90
2018-11-04T10:00:17.425Z,28.05
2018-11-04T10:02:47.216Z,27.00
2018-11-04T10:05:17.186Z,26.60
2018-11-04T10:07:47.052Z,27.65
2018-11-04T10:10:16.870Z,28.37
2018-11-04T10:12:46.862Z,29.83
2018-11-04T10:15:16.857Z,26.87
2018-11-04T10:17:46.696Z,28.00
2018-11-04T10:20:16.971Z,31.40
2018-11-04T10:22:47.131Z,30.00
2018-11-04T10:25:17.167Z,23.27
2018-11-04T10:27:47.340Z,23.27
2018-11-04T10:30:17.922Z,21.80
2018-11-04T10:32:47.547Z,21.60
2018-11-04T10:35:17.679Z,21.53
2018-11-04T10:37:47.572Z,19.92
2018-11-04T10:40:17.477Z,20.80
2018-11-04T10:42:47.408Z,19.17
2018-11-04T10:45:17.162Z,20.50
2018-11-04T10:47:46.937Z,24.43
2018-11-04T10:50:17.782Z,28.27
2018-11-04T10:57:48.975Z,26.17
2018-11-04T11:01:23.788Z,26.77
2018-11-04T11:03:54.842Z,25.15
2018-11-04T11:06:24.604Z,25.47
2018-11-04T11:08:54.321Z,25.57
2018-11-04T11:11:24.131Z,25.80
2018-11-04T11:13:54.007Z,25.43
2018-11-04T11:16:23.808Z,24.03
2018-11-04T11:18:53.733Z,27.33
2018-11-04T11:21:23.643Z,24.13
2018-11-04T11:23:53.561Z,23.77
2018-11-04T11:26:23.187Z,24.03
2018-11-04T11:28:53.091Z,24.65
2018-11-04T11:31:23.056Z,24.57
2018-11-04T11:33:52.923Z,23.60
2018-11-04T11:36:22.848Z,24.67
2018-11-04T11:38:52.994Z,24.40
2018-11-04T11:41:22.796Z,67.42
2018-11-04T11:43:52.745Z,53.75
2018-11-04T11:46:22.708Z,41.10
2018-11-04T11:48:53.083Z,33.53
2018-11-04T11:51:22.959Z,27.93
2018-11-04T11:53:52.912Z,25.10
2018-11-04T11:56:22.617Z,25.80
2018-11-04T11:58:52.541Z,24.47
2018-11-04T12:01:23.328Z,24.18
2018-11-04T12:03:53.102Z,23.70
2018-11-04T12:06:22.901Z,23.30
2018-11-04T12:08:52.768Z,24.57
2018-11-04T12:11:22.583Z,25.07
2018-11-04T12:13:52.567Z,25.93
2018-11-04T12:16:22.382Z,25.17
2018-11-04T12:18:52.455Z,25.00
2018-11-04T12:21:22.393Z,25.93
2018-11-04T12:23:52.241Z,26.02
2018-11-04T12:26:22.061Z,26.87
2018-11-04T12:28:52.054Z,25.67
2018-11-04T12:31:21.862Z,26.30
2018-11-04T12:33:51.832Z,27.87
2018-11-04T12:36:21.571Z,27.70
2018-11-04T12:38:51.377Z,26.02
2018-11-04T12:41:21.154Z,27.37
2018-11-04T12:43:51.192Z,28.97
2018-11-04T12:46:21.158Z,39.33
2018-11-04T12:48:51.132Z,33.80
2018-11-04T12:51:21.136Z,30.87
2018-11-04T12:53:51.055Z,29.33
2018-11-04T12:56:21.395Z,30.00
2018-11-04T12:58:52.352Z,27.07
2018-11-04T13:06:20.297Z,25.07
2018-11-04T13:08:50.303Z,24.83
2018-11-04T13:11:20.207Z,26.20
2018-11-04T13:13:50.199Z,24.17
2018-11-04T13:16:20.091Z,25.17
2018-11-04T13:18:50.078Z,24.05
2018-11-04T13:21:20.279Z,23.10
2018-11-04T13:23:50.173Z,23.45
2018-11-04T13:26:20.131Z,25.87
2018-11-04T13:28:50.064Z,25.17
2018-11-04T13:31:19.976Z,23.38
2018-11-04T13:33:49.845Z,22.03
2018-11-04T13:36:19.731Z,22.33
2018-11-04T13:38:49.457Z,22.35
2018-11-04T13:41:19.495Z,22.53
2018-11-04T13:43:49.335Z,22.85
2018-11-04T13:46:19.348Z,21.23
2018-11-04T13:48:49.188Z,21.53
2018-11-04T13:51:19.222Z,22.40
2018-11-04T13:53:49.022Z,23.63
2018-11-04T13:56:21.298Z,21.70
2018-11-04T13:58:52.735Z,22.67
2018-11-04T14:01:22.785Z,24.15
2018-11-04T14:03:52.621Z,25.33
2018-11-04T14:06:25.898Z,25.23
2018-11-04T14:08:55.782Z,27.80
2018-11-04T14:11:25.732Z,24.33
2018-11-04T14:13:55.716Z,26.87
2018-11-04T14:16:26.138Z,28.00
2018-11-04T14:18:56.323Z,27.25
2018-11-04T14:21:26.702Z,27.27
2018-11-04T14:23:57.485Z,26.23
2018-11-04T14:26:27.377Z,28.67
2018-11-04T14:28:57.467Z,26.93
2018-11-04T14:31:27.652Z,27.65
2018-11-04T14:33:58.131Z,28.00
2018-11-04T14:36:28.937Z,29.00
2018-11-04T14:38:59.033Z,26.97
2018-11-04T14:41:28.989Z,27.70
2018-11-04T14:43:59.410Z,27.32
2018-11-04T14:46:29.354Z,31.80
2018-11-04T14:48:59.798Z,61.25
2018-11-04T14:51:29.928Z,40.58
2018-11-04T14:54:00.211Z,28.50
2018-11-04T14:56:30.732Z,29.87
2018-11-04T14:59:00.781Z,28.97
2018-11-04T15:01:31.060Z,27.27
2018-11-04T15:04:00.643Z,25.97
2018-11-04T15:06:30.722Z,28.43
2018-11-04T15:09:00.687Z,27.27
2018-11-04T15:11:30.482Z,25.67
2018-11-04T15:14:00.207Z,26.27
2018-11-04T15:16:30.016Z,26.43
2018-11-04T15:19:00.057Z,28.03
2018-11-04T15:21:29.944Z,41.60
2018-11-04T15:23:59.740Z,32.45
2018-11-04T15:29:13.884Z,21.17
2018-11-04T15:31:43.904Z,17.50
2018-11-04T15:34:13.679Z,17.87
2018-11-04T15:36:43.636Z,15.90
2018-11-04T15:39:13.914Z,16.63
2018-11-04T15:41:43.612Z,15.83
2018-11-04T15:44:13.596Z,15.37
2018-11-04T15:46:43.637Z,16.67
2018-11-04T15:49:13.744Z,15.27
2018-11-04T15:51:43.404Z,14.63
2018-11-04T15:54:13.402Z,14.90
2018-11-04T15:56:43.499Z,14.03
2018-11-04T15:59:14.932Z,14.23
2018-11-04T16:01:44.812Z,14.20
2018-11-04T16:04:14.763Z,13.80
2018-11-04T16:06:44.588Z,14.55
2018-11-04T16:09:15.072Z,13.97
2018-11-04T16:11:44.864Z,14.13
2018-11-04T16:14:14.754Z,14.27
2018-11-04T16:16:44.628Z,14.07
2018-11-04T16:19:14.588Z,13.35
2018-11-04T16:21:44.435Z,14.70
2018-11-04T16:24:14.188Z,13.23
2018-11-04T16:26:44.153Z,13.73
2018-11-04T16:29:14.945Z,13.28
2018-11-04T16:31:44.718Z,14.33
2018-11-04T16:34:14.613Z,14.03
2018-11-04T16:36:44.643Z,13.65
2018-11-04T16:39:14.731Z,13.57
2018-11-04T16:41:44.754Z,13.70
2018-11-04T16:44:15.065Z,14.50
2018-11-04T16:46:44.603Z,14.27
2018-11-04T16:49:14.770Z,14.30
2018-11-04T16:51:45.239Z,13.83
2018-11-04T16:54:15.225Z,14.10
2018-11-04T16:56:45.122Z,14.00
2018-11-04T16:59:15.144Z,14.30
2018-11-04T17:01:45.158Z,14.23
2018-11-04T17:04:15.512Z,14.63
2018-11-04T17:06:45.292Z,14.83
2018-11-04T17:09:15.283Z,14.00
2018-11-04T17:11:45.321Z,13.77
2018-11-04T17:14:15.326Z,15.50
2018-11-04T17:16:45.328Z,14.80
2018-11-04T17:19:15.348Z,16.27
2018-11-04T17:21:45.418Z,16.17
2018-11-04T17:24:15.316Z,14.80
2018-11-04T17:26:45.081Z,14.37
2018-11-04T17:34:12.423Z,13.80
2018-11-04T17:36:42.431Z,13.43
2018-11-04T17:39:13.188Z,14.87
2018-11-04T17:41:43.147Z,14.40
2018-11-04T17:44:13.304Z,13.90
2018-11-04T17:46:43.277Z,13.93
2018-11-04T17:49:13.366Z,15.90
2018-11-04T17:51:43.374Z,15.10
2018-11-04T17:54:13.675Z,13.87
2018-11-04T17:56:43.393Z,23.75
2018-11-04T17:59:13.419Z,18.90
2018-11-04T18:04:23.778Z,18.33
2018-11-04T18:06:56.268Z,15.90
2018-11-04T18:09:28.724Z,14.83
2018-11-04T18:11:58.553Z,15.87
2018-11-04T18:14:28.804Z,15.07
2018-11-04T18:16:58.989Z,15.25
2018-11-04T18:19:29.003Z,15.30
2018-11-04T18:22:00.100Z,14.80
2018-11-04T18:24:30.065Z,14.97
2018-11-04T18:27:00.058Z,14.07
2018-11-04T18:29:30.080Z,14.65
2018-11-04T18:32:00.088Z,14.47
2018-11-04T18:34:29.828Z,14.80
2018-11-04T18:37:00.508Z,15.00
2018-11-04T18:39:30.620Z,13.20
2018-11-04T18:42:00.662Z,13.73
2018-11-04T18:44:30.773Z,14.37
2018-11-04T18:47:00.728Z,14.13
2018-11-04T18:49:30.748Z,14.90
2018-11-04T18:52:01.298Z,16.03
2018-11-04T18:54:31.277Z,15.33
2018-11-04T18:57:01.062Z,15.10
2018-11-04T18:59:30.953Z,14.33
2018-11-04T19:02:01.901Z,15.03
2018-11-04T19:04:31.988Z,15.50
2018-11-04T19:07:01.873Z,14.20
2018-11-04T19:09:31.852Z,14.77
2018-11-04T19:12:01.749Z,15.47
2018-11-04T19:14:31.689Z,13.80
2018-11-04T19:17:01.630Z,15.17
2018-11-04T19:19:31.759Z,18.93
2018-11-04T19:22:01.958Z,92.70
2018-11-04T19:24:32.219Z,90.53
2018-11-04T19:27:02.399Z,48.33
2018-11-04T19:29:32.775Z,38.85
2018-11-04T19:32:02.990Z,25.93
2018-11-04T19:34:33.425Z,18.40
2018-11-04T19:37:03.454Z,15.70
2018-11-04T19:39:33.584Z,14.67
2018-11-04T19:42:03.780Z,14.80
2018-11-04T19:44:34.084Z,15.20
2018-11-04T19:47:04.570Z,16.90
2018-11-04T19:49:34.762Z,16.42
2018-11-04T19:52:04.857Z,14.40
2018-11-04T19:54:34.845Z,13.93
2018-11-04T19:57:05.099Z,13.07
2018-11-04T19:59:35.125Z,13.93
2018-11-04T20:02:05.779Z,13.83
2018-11-04T20:04:36.143Z,13.50
2018-11-04T20:07:07.578Z,13.97
2018-11-04T20:09:37.641Z,13.80
2018-11-04T20:12:11.670Z,15.80
2018-11-04T20:14:42.209Z,14.40
2018-11-04T20:17:12.369Z,14.30
2018-11-04T20:19:47.660Z,15.13
2018-11-04T20:22:17.832Z,15.27
2018-11-04T20:24:52.958Z,14.37
2018-11-04T20:27:23.002Z,14.58
2018-11-04T20:29:53.183Z,14.25
2018-11-04T20:32:28.259Z,14.27
2018-11-04T20:34:58.778Z,14.07
2018-11-04T20:37:28.767Z,13.97
2018-11-04T20:40:03.985Z,14.53
2018-11-04T20:42:34.275Z,15.47
2018-11-04T20:45:04.620Z,16.20
2018-11-04T20:47:39.377Z,16.03
2018-11-04T20:50:14.699Z,16.67
2018-11-04T20:52:45.307Z,34.50
2018-11-04T20:55:15.570Z,31.37
2018-11-04T20:57:47.596Z,27.43
2018-11-04T21:00:17.700Z,19.87
2018-11-04T21:02:47.946Z,19.10
2018-11-04T21:05:18.016Z,17.00
2018-11-04T21:07:47.869Z,17.17
2018-11-04T21:10:17.916Z,16.93
2018-11-04T21:12:48.024Z,16.70
2018-11-04T21:15:17.834Z,16.62
2018-11-04T21:17:47.630Z,15.30
2018-11-04T21:20:17.943Z,21.53
2018-11-04T21:22:48.106Z,16.13
2018-11-04T21:25:18.126Z,15.73
2018-11-04T21:27:48.456Z,14.60
2018-11-04T21:30:18.324Z,14.77
2018-11-04T21:32:48.255Z,14.77
2018-11-04T21:35:19.260Z,15.87
2018-11-04T21:37:50.077Z,14.58
2018-11-04T21:40:20.243Z,14.47
2018-11-04T21:42:50.507Z,13.63
2018-11-04T21:45:20.206Z,14.60
2018-11-04T21:47:50.060Z,14.10
2018-11-04T21:50:20.132Z,40.87
2018-11-04T21:52:50.020Z,47.13
2018-11-04T21:55:19.969Z,26.13
2018-11-04T21:57:49.512Z,19.17
2018-11-04T22:00:19.538Z,19.23
2018-11-04T22:02:49.476Z,17.92
2018-11-04T22:05:19.150Z,15.70
2018-11-04T22:07:48.906Z,15.97
2018-11-04T22:10:18.842Z,15.78
2018-11-04T22:12:48.603Z,15.27
2018-11-04T22:15:18.386Z,15.53
2018-11-04T22:17:48.256Z,14.90
2018-11-04T22:20:18.460Z,16.30
2018-11-04T22:22:48.418Z,15.50
2018-11-04T22:25:18.265Z,16.53
2018-11-04T22:27:48.030Z,15.73
2018-11-04T22:30:17.840Z,15.83
2018-11-04T22:32:47.580Z,14.97
2018-11-04T22:35:18.448Z,14.68
2018-11-04T22:37:48.340Z,13.93
2018-11-04T22:40:18.133Z,14.13
2018-11-04T22:42:47.805Z,14.10
2018-11-04T22:45:17.594Z,13.87
2018-11-04T22:47:47.253Z,13.87
2018-11-04T22:50:17.071Z,14.50
2018-11-04T22:52:46.781Z,14.10
2018-11-04T22:55:16.949Z,14.00
2018-11-04T22:57:46.765Z,13.28
2018-11-04T23:00:21.616Z,13.88
2018-11-04T23:02:51.270Z,11.93
2018-11-04T23:05:27.171Z,13.83
2018-11-04T23:07:56.868Z,102.30
2018-11-04T23:10:26.586Z,29.00
2018-11-04T23:12:56.344Z,15.17
2018-11-04T23:15:26.497Z,13.48
2018-11-04T23:17:56.408Z,13.57
2018-11-04T23:20:26.155Z,14.10
2018-11-04T23:22:55.871Z,15.10
2018-11-04T23:25:25.524Z,14.63
2018-11-04T23:27:55.470Z,12.67
2018-11-04T23:30:25.225Z,12.60
2018-11-04T23:32:54.869Z,13.10
2018-11-04T23:35:24.790Z,12.43
2018-11-04T23:37:54.468Z,12.15
2018-11-04T23:40:24.896Z,11.30
2018-11-04T23:42:55.603Z,11.43
2018-11-04T23:45:25.263Z,12.03
2018-11-04T23:47:55.321Z,13.33
2018-11-04T23:50:25.129Z,12.83
2018-11-04T23:52:54.881Z,12.27
2018-11-04T23:55:24.631Z,12.57
2018-11-04T23:57:54.246Z,12.70
